createdAt,value
2023-03-24T00:02:52.652Z,15.05
2023-03-24T00:07:55.476Z,15.29
2023-03-24T00:13:01.460Z,15.22
2023-03-24T00:18:04.576Z,14.91
2023-03-24T00:23:07.181Z,14.79
2023-03-24T00:28:10.276Z,14.85
2023-03-24T00:33:13.763Z,14.76
2023-03-24T00:38:16.593Z,14.64
2023-03-24T00:43:20.036Z,14.66
2023-03-24T00:48:24.476Z,14.80
2023-03-24T00:53:29.566Z,14.81
2023-03-24T00:58:34.570Z,15.00
2023-03-24T01:03:43.589Z,14.82
2023-03-24T01:08:46.714Z,14.80
2023-03-24T01:13:51.118Z,14.89
2023-03-24T01:18:53.885Z,14.81
2023-03-24T01:23:56.901Z,14.79
2023-03-24T01:28:59.772Z,15.12
2023-03-24T01:34:02.783Z,14.81
2023-03-24T01:39:05.806Z,14.96
2023-03-24T01:44:46.429Z,14.79
2023-03-24T01:49:54.303Z,14.79
2023-03-24T01:55:09.472Z,14.58
2023-03-24T02:00:14.766Z,14.54
2023-03-24T02:05:31.517Z,14.52
2023-03-24T02:10:38.001Z,14.57
2023-03-24T02:16:09.388Z,14.61
2023-03-24T02:21:33.944Z,14.83
2023-03-24T02:27:03.398Z,14.92
2023-03-24T02:32:45.135Z,14.96
2023-03-24T02:38:05.539Z,14.95
2023-03-24T02:43:46.757Z,14.92
2023-03-24T02:49:21.705Z,14.89
2023-03-24T02:54:52.976Z,14.93
2023-03-24T03:00:14.205Z,14.92
2023-03-24T03:05:46.689Z,14.96
2023-03-24T03:10:53.706Z,14.98
2023-03-24T03:16:00.692Z,15.00
2023-03-24T03:21:11.122Z,15.02
2023-03-24T03:26:18.390Z,15.06
2023-03-24T03:31:30.256Z,15.09
2023-03-24T03:37:09.198Z,15.12
2023-03-24T03:42:12.602Z,15.15
2023-03-24T03:47:16.524Z,15.36
2023-03-24T03:52:22.033Z,15.44
2023-03-24T03:57:26.950Z,15.53
2023-03-24T04:03:22.475Z,15.35
2023-03-24T04:08:49.211Z,15.41
2023-03-24T04:14:22.321Z,15.67
2023-03-24T04:20:12.784Z,15.54
2023-03-24T04:25:31.404Z,15.44
2023-03-24T04:30:33.958Z,15.44
2023-03-24T04:35:49.439Z,15.48
2023-03-24T04:40:57.979Z,15.56
2023-03-24T04:46:00.621Z,15.66
2023-03-24T04:51:28.898Z,15.68
2023-03-24T04:56:48.005Z,15.61
2023-03-24T05:02:14.092Z,15.63
2023-03-24T05:07:52.228Z,15.64
2023-03-24T05:12:55.126Z,15.68
2023-03-24T05:18:23.329Z,15.70
2023-03-24T05:23:25.909Z,15.70
2023-03-24T05:28:29.547Z,15.65
2023-03-24T05:33:32.308Z,15.57
2023-03-24T05:38:36.418Z,15.48
2023-03-24T05:43:39.403Z,15.45
2023-03-24T05:48:51.456Z,15.68
2023-03-24T05:53:56.306Z,15.68
2023-03-24T05:59:05.362Z,15.53
2023-03-24T06:04:30.125Z,15.33
2023-03-24T06:09:42.698Z,15.45
2023-03-24T06:14:48.576Z,15.45
2023-03-24T06:19:52.023Z,15.44
2023-03-24T06:25:17.072Z,15.22
2023-03-24T06:30:31.192Z,15.21
2023-03-24T06:35:33.936Z,15.31
2023-03-24T06:40:41.279Z,15.46
2023-03-24T06:45:45.993Z,15.48
2023-03-24T06:50:56.110Z,14.89
2023-03-24T06:55:58.944Z,15.01
2023-03-24T07:01:07.644Z,15.14
2023-03-24T07:06:29.947Z,14.88
2023-03-24T07:11:41.689Z,14.96
2023-03-24T07:16:44.966Z,14.73
2023-03-24T07:22:12.580Z,14.42
2023-03-24T07:27:39.424Z,14.32
2023-03-24T07:32:44.120Z,14.12
2023-03-24T07:37:47.319Z,14.05
2023-03-24T07:42:50.899Z,13.95
2023-03-24T07:48:19.814Z,13.84
2023-03-24T07:53:22.603Z,14.01
2023-03-24T07:58:26.623Z,13.91
2023-03-24T08:03:45.443Z,13.89
2023-03-24T08:08:51.603Z,14.03
2023-03-24T08:13:54.287Z,14.11
2023-03-24T08:19:00.138Z,14.33
2023-03-24T08:24:02.708Z,14.56
2023-03-24T08:29:06.200Z,14.41
2023-03-24T08:34:11.785Z,14.37
2023-03-24T08:39:14.767Z,14.54
2023-03-24T08:44:17.772Z,14.51
2023-03-24T08:49:20.372Z,14.58
2023-03-24T08:54:24.049Z,14.66
2023-03-24T08:59:26.956Z,14.32
2023-03-24T09:04:29.615Z,14.46
2023-03-24T09:09:33.456Z,14.69
2023-03-24T09:14:36.127Z,14.66
2023-03-24T09:19:39.390Z,14.71
2023-03-24T09:24:51.265Z,15.21
2023-03-24T09:29:54.079Z,15.06
2023-03-24T09:34:56.724Z,15.15
2023-03-24T09:40:01.509Z,15.11
2023-03-24T09:45:18.458Z,15.92
2023-03-24T09:50:33.567Z,16.22
2023-03-24T09:55:39.617Z,15.93
2023-03-24T10:00:44.930Z,15.87
2023-03-24T10:06:22.939Z,17.25
2023-03-24T10:11:43.855Z,19.02
2023-03-24T10:16:58.219Z,18.27
2023-03-24T10:22:38.352Z,17.75
2023-03-24T10:27:45.557Z,17.59
2023-03-24T10:32:48.299Z,17.55
2023-03-24T10:37:52.275Z,17.50
2023-03-24T10:43:06.179Z,16.80
2023-03-24T10:48:14.532Z,17.07
2023-03-24T10:53:21.186Z,17.15
2023-03-24T10:58:35.840Z,17.33
2023-03-24T11:03:38.762Z,17.20
2023-03-24T11:08:42.221Z,16.86
2023-03-24T11:13:57.265Z,19.80
2023-03-24T11:19:01.843Z,18.90
2023-03-24T11:24:12.083Z,17.55
2023-03-24T11:29:15.989Z,18.57
2023-03-24T11:34:34.465Z,19.56
2023-03-24T11:39:37.153Z,20.38
2023-03-24T11:44:39.723Z,18.08
2023-03-24T11:50:09.808Z,17.27
2023-03-24T11:55:40.647Z,17.02
2023-03-24T12:00:48.277Z,18.56
2023-03-24T12:06:06.764Z,17.47
2023-03-24T12:11:28.852Z,17.31
2023-03-24T12:16:46.909Z,17.23
2023-03-24T12:21:59.762Z,17.01
2023-03-24T12:27:02.615Z,17.57
2023-03-24T12:32:23.524Z,17.24
2023-03-24T12:37:47.324Z,17.06
2023-03-24T12:43:03.534Z,16.91
2023-03-24T12:48:26.870Z,16.54
2023-03-24T12:53:47.547Z,16.63
2023-03-24T12:58:52.090Z,16.81
2023-03-24T13:04:08.256Z,16.86
2023-03-24T13:09:19.792Z,16.55
2023-03-24T13:14:30.594Z,16.38
2023-03-24T13:19:35.936Z,16.23
2023-03-24T13:24:38.873Z,16.32
2023-03-24T13:29:49.229Z,16.22
2023-03-24T13:35:18.955Z,16.18
2023-03-24T13:40:28.152Z,16.35
2023-03-24T13:45:51.788Z,16.23
2023-03-24T13:51:01.984Z,16.14
2023-03-24T13:56:07.279Z,16.28
2023-03-24T14:01:12.771Z,16.34
2023-03-24T14:06:18.621Z,16.94
2023-03-24T14:11:38.409Z,16.87
2023-03-24T14:17:05.040Z,16.81
2023-03-24T14:22:13.264Z,16.97
2023-03-24T14:27:32.085Z,16.83
2023-03-24T14:32:46.237Z,16.35
2023-03-24T14:37:55.517Z,16.39
2023-03-24T14:43:15.931Z,16.38
2023-03-24T14:48:34.965Z,16.05
2023-03-24T14:53:39.437Z,15.92
2023-03-24T14:58:44.563Z,15.77
2023-03-24T15:03:52.950Z,15.54
2023-03-24T15:08:58.784Z,15.21
2023-03-24T15:14:03.850Z,14.63
2023-03-24T15:19:19.987Z,14.16
2023-03-24T15:24:22.557Z,14.23
2023-03-24T15:29:26.005Z,13.70
2023-03-24T15:34:35.492Z,13.47
2023-03-24T15:39:39.875Z,13.27
2023-03-24T15:44:42.755Z,13.43
2023-03-24T15:49:55.233Z,13.46
2023-03-24T15:55:35.067Z,13.54
2023-03-24T16:00:42.566Z,13.57
2023-03-24T16:05:51.527Z,13.31
2023-03-24T16:11:05.185Z,13.29
2023-03-24T16:16:17.082Z,13.29
2023-03-24T16:21:25.268Z,13.31
2023-03-24T16:26:31.388Z,13.52
2023-03-24T16:31:36.905Z,13.91
2023-03-24T16:36:39.648Z,13.95
2023-03-24T16:41:42.541Z,14.24
2023-03-24T16:46:47.148Z,14.50
2023-03-24T16:51:50.294Z,14.46
2023-03-24T16:56:52.991Z,14.09
2023-03-24T17:02:04.119Z,14.11
2023-03-24T17:07:06.922Z,14.07
2023-03-24T17:12:10.135Z,14.00
2023-03-24T17:17:12.961Z,13.64
2023-03-24T17:22:19.534Z,13.67
2023-03-24T17:27:22.261Z,14.02
2023-03-24T17:32:30.099Z,14.06
2023-03-24T17:37:32.875Z,13.92
2023-03-24T17:42:35.978Z,14.08
2023-03-24T17:47:39.842Z,13.47
2023-03-24T17:52:49.361Z,13.33
2023-03-24T17:57:51.885Z,13.32
2023-03-24T18:02:54.418Z,13.43
2023-03-24T18:07:57.116Z,13.61
2023-03-24T18:13:01.632Z,13.23
2023-03-24T18:18:04.501Z,13.15
2023-03-24T18:23:07.571Z,12.95
2023-03-24T18:28:10.289Z,12.97
2023-03-24T18:33:16.147Z,12.84
2023-03-24T18:38:22.393Z,12.95
2023-03-24T18:43:26.614Z,12.81
2023-03-24T18:48:29.153Z,12.80
2023-03-24T18:53:34.699Z,12.54
2023-03-24T18:58:40.804Z,12.49
2023-03-24T19:03:45.043Z,12.49
2023-03-24T19:08:53.264Z,12.59
2023-03-24T19:13:56.990Z,12.51
2023-03-24T19:19:00.257Z,12.32
2023-03-24T19:24:02.927Z,12.29
2023-03-24T19:29:06.442Z,12.27
2023-03-24T19:34:09.063Z,12.34
2023-03-24T19:39:15.321Z,12.33
2023-03-24T19:44:18.170Z,12.19
2023-03-24T19:49:21.521Z,12.35
2023-03-24T19:54:24.265Z,12.36
2023-03-24T19:59:26.876Z,12.24
2023-03-24T20:04:29.510Z,12.04
2023-03-24T20:09:32.162Z,11.91
2023-03-24T20:14:34.745Z,11.84
2023-03-24T20:19:37.298Z,12.08
2023-03-24T20:24:40.265Z,11.98
2023-03-24T20:29:43.156Z,11.85
2023-03-24T20:34:46.216Z,11.87
2023-03-24T20:39:48.916Z,11.81
2023-03-24T20:44:51.877Z,12.02
2023-03-24T20:49:54.499Z,12.15
2023-03-24T20:54:57.023Z,11.81
2023-03-24T20:59:59.845Z,11.64
2023-03-24T21:05:03.932Z,11.73
2023-03-24T21:10:07.205Z,11.66
2023-03-24T21:15:10.689Z,11.48
2023-03-24T21:20:14.050Z,11.37
2023-03-24T21:25:16.887Z,11.50
2023-03-24T21:30:20.327Z,11.34
2023-03-24T21:35:23.614Z,11.36
2023-03-24T21:40:26.917Z,11.51
2023-03-24T21:45:32.594Z,11.61
2023-03-24T21:50:38.965Z,11.32
2023-03-24T21:55:52.580Z,11.24
2023-03-24T22:00:55.874Z,11.15
2023-03-24T22:05:58.407Z,11.18
2023-03-24T22:11:04.374Z,11.19
2023-03-24T22:16:07.985Z,11.24
2023-03-24T22:21:11.559Z,11.23
2023-03-24T22:26:16.960Z,11.14
2023-03-24T22:31:23.174Z,11.17
2023-03-24T22:36:25.961Z,11.22
2023-03-24T22:41:28.549Z,11.30
2023-03-24T22:46:31.136Z,11.44
2023-03-24T22:51:33.930Z,11.62
2023-03-24T22:56:36.508Z,11.54
2023-03-24T23:01:39.368Z,11.08
2023-03-24T23:06:42.024Z,11.12
2023-03-24T23:11:44.769Z,10.93
2023-03-24T23:16:47.620Z,11.14
2023-03-24T23:21:50.197Z,11.41
2023-03-24T23:26:52.878Z,11.49
2023-03-24T23:31:55.669Z,11.80
2023-03-24T23:36:58.274Z,11.46
2023-03-24T23:42:00.775Z,11.06
2023-03-24T23:47:03.670Z,10.82
2023-03-24T23:52:06.327Z,10.79
2023-03-24T23:57:09.211Z,10.61
